Time;durP1;ratioP1;P1;durP2;ratioP2;P2;SDS_P1;SDS_P2;PMS_P1;PMS_P2;Temp;Humidity;BMP_temperature;BMP_pressure;BME280_temperature;BME280_humidity;BME280_pressure;Samples;Min_cycle;Max_cycle;Signal;HPM_P1;HPM_P2
2023/10/02 00:04:37;;;;;;;13.55;9.90;;;21.20;75.70;;;;;;10946069;32;20081;-69
2023/10/02 00:10:40;;;;;;;8.70;7.25;;;21.20;76.10;;;;;;10944763;32;20023;-69
2023/10/02 00:16:42;;;;;;;10.93;9.10;;;21.10;76.00;;;;;;10944473;32;20034;-69
2023/10/02 00:22:45;;;;;;;11.10;7.75;;;21.10;76.10;;;;;;10944147;32;20042;-69
2023/10/02 00:28:48;;;;;;;11.85;9.23;;;21.10;76.60;;;;;;10943903;32;20037;-69
2023/10/02 00:34:50;;;;;;;9.00;7.03;;;21.00;77.40;;;;;;10945002;32;20042;-69
2023/10/02 00:40:53;;;;;;;10.40;8.93;;;21.10;77.60;;;;;;10930119;32;20033;-70
2023/10/02 00:46:56;;;;;;;8.95;7.93;;;21.00;78.00;;;;;;10947344;32;20073;-70
2023/10/02 00:53:04;;;;;;;10.80;8.63;;;20.90;78.50;;;;;;10980714;32;20418;-70
2023/10/02 00:59:15;;;;;;;12.50;10.10;;;20.90;78.50;;;;;;10980391;32;20083;-70
2023/10/02 01:05:30;;;;;;;10.85;8.32;;;20.80;78.80;;;;;;10980230;32;20058;-69
2023/10/02 01:11:34;;;;;;;10.50;8.90;;;20.80;79.10;;;;;;10981344;32;20341;-69
2023/10/02 01:17:39;;;;;;;14.18;10.50;;;20.80;78.60;;;;;;10980958;32;20023;-69
2023/10/02 01:24:16;;;;;;;11.80;10.40;;;20.80;78.50;;;;;;10952314;32;20031;-69
2023/10/02 01:30:21;;;;;;;10.23;8.27;;;20.80;78.70;;;;;;10980125;32;20022;-69
2023/10/02 01:36:28;;;;;;;10.32;8.48;;;20.80;78.40;;;;;;10980040;32;20019;-69
2023/10/02 01:42:30;;;;;;;12.85;10.13;;;20.70;78.30;;;;;;10979357;32;20019;-69
2023/10/02 01:48:40;;;;;;;9.55;6.80;;;20.60;78.40;;;;;;10979085;32;20026;-69
2023/10/02 01:54:47;;;;;;;12.65;9.68;;;20.60;78.40;;;;;;10979283;32;20053;-69
2023/10/02 02:00:51;;;;;;;11.50;9.35;;;20.60;78.50;;;;;;10980968;32;20019;-69
2023/10/02 02:06:57;;;;;;;12.10;10.07;;;20.70;78.70;;;;;;10985158;32;20049;-69
2023/10/02 02:12:59;;;;;;;11.07;9.80;;;20.60;78.60;;;;;;10987038;32;20026;-69
2023/10/02 02:19:07;;;;;;;12.07;10.65;;;20.60;78.70;;;;;;10959922;32;20404;-69
2023/10/02 02:25:10;;;;;;;12.30;10.50;;;20.50;78.70;;;;;;10986672;32;20055;-69
2023/10/02 02:31:30;;;;;;;11.60;9.07;;;20.60;78.80;;;;;;10971988;32;20039;-69
2023/10/02 02:37:33;;;;;;;10.50;9.05;;;20.50;78.80;;;;;;10973533;32;20325;-69
2023/10/02 02:43:38;;;;;;;9.80;8.80;;;20.40;78.70;;;;;;10971492;32;20034;-69
2023/10/02 02:49:48;;;;;;;12.30;10.90;;;20.40;78.80;;;;;;10981604;32;20015;-69
2023/10/02 02:56:38;;;;;;;10.27;8.45;;;20.40;78.70;;;;;;10985705;32;20010;-69
2023/10/02 03:02:33;;;;;;;9.43;6.75;;;20.40;78.80;;;;;;10971430;32;20015;-69
2023/10/02 03:08:38;;;;;;;12.80;10.15;;;20.40;79.20;;;;;;10984078;32;20329;-69
2023/10/02 03:14:40;;;;;;;14.10;10.52;;;20.40;79.30;;;;;;10983831;32;20018;-74
2023/10/02 03:20:43;;;;;;;12.85;9.40;;;20.30;79.20;;;;;;10984085;32;20046;-74
2023/10/02 03:26:52;;;;;;;12.43;9.88;;;20.30;79.40;;;;;;10983798;32;20023;-74
2023/10/02 03:32:55;;;;;;;13.85;10.98;;;20.30;79.40;;;;;;10969990;32;20042;-74
2023/10/02 03:38:57;;;;;;;11.07;9.88;;;20.30;79.80;;;;;;10982300;32;20555;-74
2023/10/02 03:45:04;;;;;;;12.90;9.98;;;20.20;80.00;;;;;;10983258;32;20045;-74
2023/10/02 03:51:06;;;;;;;10.75;9.65;;;20.20;79.80;;;;;;10982967;32;20195;-74
2023/10/02 03:57:10;;;;;;;10.32;8.98;;;20.10;79.60;;;;;;10969287;32;20038;-74
2023/10/02 04:03:14;;;;;;;13.10;9.90;;;20.20;79.80;;;;;;10982577;32;20336;-74
2023/10/02 04:09:25;;;;;;;10.52;9.43;;;20.10;79.80;;;;;;10982181;32;20022;-74
2023/10/02 04:15:28;;;;;;;10.63;9.50;;;20.10;79.80;;;;;;10981996;32;20050;-74
2023/10/02 04:21:33;;;;;;;15.20;9.35;;;20.10;79.80;;;;;;10981801;32;20026;-74
2023/10/02 04:33:52;;;;;;;12.65;9.63;;;20.00;79.80;;;;;;10982030;32;20329;-74
2023/10/02 04:40:22;;;;;;;12.13;9.97;;;20.00;80.00;;;;;;10967342;32;20358;-74
2023/10/02 04:46:16;;;;;;;9.80;7.85;;;20.00;80.00;;;;;;10980810;32;20022;-74
2023/10/02 04:52:34;;;;;;;11.68;9.23;;;19.90;80.00;;;;;;10966994;32;20057;-74
2023/10/02 04:58:39;;;;;;;12.95;8.77;;;19.90;80.10;;;;;;10980596;32;20034;-74
2023/10/02 05:04:42;;;;;;;7.60;6.47;;;19.90;80.00;;;;;;10966514;32;20026;-74
2023/10/02 05:11:06;;;;;;;12.68;9.48;;;19.80;79.90;;;;;;10966060;32;20019;-73
2023/10/02 05:17:17;;;;;;;11.20;9.65;;;19.80;80.00;;;;;;10979978;32;20006;-74
2023/10/02 05:23:21;;;;;;;10.98;8.82;;;19.80;80.00;;;;;;10979777;32;20045;-74
2023/10/02 05:29:41;;;;;;;11.55;9.82;;;19.80;80.10;;;;;;10979168;32;20053;-74
2023/10/02 05:35:51;;;;;;;10.65;8.27;;;19.80;80.00;;;;;;10979126;32;20302;-74
2023/10/02 05:42:05;;;;;;;12.27;9.82;;;19.80;79.80;;;;;;10972870;32;20031;-69
2023/10/02 05:48:19;;;;;;;9.88;8.25;;;19.80;80.00;;;;;;10941426;32;20054;-69
2023/10/02 05:54:26;;;;;;;11.38;9.52;;;19.80;79.90;;;;;;10941257;32;20020;-69
2023/10/02 06:00:35;;;;;;;8.98;7.20;;;19.80;79.90;;;;;;10941204;32;20042;-69
2023/10/02 06:06:38;;;;;;;19.15;7.53;;;19.80;79.80;;;;;;10940956;32;20448;-69
2023/10/02 06:12:43;;;;;;;10.13;7.37;;;19.80;79.80;;;;;;10941000;32;20089;-69
2023/10/02 06:18:46;;;;;;;11.40;9.25;;;19.80;79.90;;;;;;10940831;32;20326;-69
2023/10/02 06:24:48;;;;;;;11.43;8.60;;;19.80;79.90;;;;;;10936459;32;20054;-69
2023/10/02 06:30:50;;;;;;;9.27;7.78;;;19.80;79.90;;;;;;10940729;32;20298;-69
2023/10/02 06:37:07;;;;;;;10.85;8.15;;;19.80;79.90;;;;;;10940507;32;20011;-69
2023/10/02 06:43:28;;;;;;;8.73;7.55;;;19.90;79.90;;;;;;10940455;32;20165;-69
2023/10/02 06:49:33;;;;;;;9.23;6.55;;;20.00;79.90;;;;;;10886636;27;20039;-69
2023/10/02 06:55:35;;;;;;;10.98;7.22;;;20.10;79.90;;;;;;10828918;33;20447;-69
2023/10/02 07:01:59;;;;;;;9.63;8.25;;;20.20;79.80;;;;;;10824605;33;20046;-69
2023/10/02 07:08:02;;;;;;;11.35;7.30;;;20.30;79.80;;;;;;10827723;33;20036;-70
2023/10/02 07:14:04;;;;;;;12.37;9.95;;;20.30;79.90;;;;;;10828495;33;20397;-69
2023/10/02 07:20:11;;;;;;;14.05;10.30;;;20.40;80.10;;;;;;10828204;33;20016;-69
2023/10/02 07:26:17;;;;;;;15.50;10.30;;;20.50;80.10;;;;;;10827329;33;20350;-71
2023/10/02 07:32:21;;;;;;;13.15;11.30;;;20.50;79.90;;;;;;10827893;33;20047;-70
2023/10/02 07:38:30;;;;;;;21.98;11.23;;;20.60;80.00;;;;;;10827804;33;20020;-70
2023/10/02 07:44:38;;;;;;;12.88;9.25;;;20.70;79.90;;;;;;10827847;33;20406;-71
2023/10/02 07:50:44;;;;;;;16.48;11.45;;;20.80;80.00;;;;;;10827620;33;20054;-69
2023/10/02 07:56:47;;;;;;;16.33;13.57;;;20.80;79.80;;;;;;10827338;33;20047;-72
2023/10/02 08:02:51;;;;;;;12.30;10.43;;;20.80;79.70;;;;;;10827083;32;20051;-69
2023/10/02 08:15:27;;;;;;;12.13;9.30;;;20.80;80.50;;;;;;10826935;33;20055;-70
2023/10/02 08:21:35;;;;;;;12.85;9.90;;;21.00;80.10;;;;;;10825258;32;20028;-70
2023/10/02 08:27:39;;;;;;;13.80;9.75;;;21.10;79.70;;;;;;10826329;33;20028;-70
2023/10/02 08:33:43;;;;;;;12.55;9.70;;;21.30;79.80;;;;;;10813913;32;20036;-73
2023/10/02 08:39:45;;;;;;;14.68;12.05;;;21.30;79.70;;;;;;10825026;33;20040;-74
2023/10/02 08:45:47;;;;;;;13.35;10.57;;;21.30;79.60;;;;;;10825857;33;20039;-74
2023/10/02 08:51:49;;;;;;;12.07;8.75;;;21.40;79.30;;;;;;10824936;33;20330;-74
2023/10/02 08:57:51;;;;;;;13.13;9.65;;;21.60;79.10;;;;;;10825505;33;20019;-75
2023/10/02 09:10:24;;;;;;;12.43;10.43;;;21.80;78.90;;;;;;10824841;32;20012;-73
2023/10/02 09:16:29;;;;;;;14.82;9.45;;;21.90;78.50;;;;;;10825129;33;20024;-74
2023/10/02 09:22:38;;;;;;;14.57;10.25;;;21.90;78.30;;;;;;10824952;33;20042;-70
2023/10/02 09:28:41;;;;;;;11.40;9.30;;;22.00;78.00;;;;;;10824839;33;20333;-70
2023/10/02 09:35:08;;;;;;;13.70;10.25;;;22.10;77.40;;;;;;10824382;33;20016;-69
2023/10/02 09:41:15;;;;;;;9.93;7.45;;;22.20;77.00;;;;;;10824373;33;20350;-69
2023/10/02 09:47:25;;;;;;;11.55;9.45;;;22.30;76.50;;;;;;10824113;32;20315;-70
2023/10/02 09:53:29;;;;;;;10.27;8.45;;;22.50;76.30;;;;;;10823892;33;20020;-69
2023/10/02 09:59:48;;;;;;;16.35;11.18;;;22.70;75.80;;;;;;10823172;33;20019;-70
2023/10/02 10:06:08;;;;;;;10.98;8.23;;;22.80;75.40;;;;;;10822648;33;20063;-70
2023/10/02 10:12:50;;;;;;;11.90;9.20;;;23.00;75.00;;;;;;10822547;33;20047;-70
2023/10/02 10:31:29;;;;;;;10.18;8.05;;;23.50;73.90;;;;;;10829789;33;20054;-69
2023/10/02 10:37:46;;;;;;;9.45;7.25;;;23.80;73.20;;;;;;10829588;33;20340;-69
2023/10/02 10:50:18;;;;;;;12.40;5.22;;;24.10;71.90;;;;;;10829089;33;20046;-69
2023/10/02 10:56:19;;;;;;;12.82;6.03;;;24.30;71.60;;;;;;10829005;33;20483;-68
2023/10/02 11:02:21;;;;;;;8.07;6.47;;;24.60;70.90;;;;;;10829449;33;20020;-69
2023/10/02 11:08:24;;;;;;;9.43;6.32;;;24.80;70.00;;;;;;10829892;33;20031;-69
2023/10/02 11:14:36;;;;;;;9.13;6.25;;;25.00;69.40;;;;;;10828293;33;20043;-69
2023/10/02 11:20:38;;;;;;;8.73;6.60;;;25.30;68.70;;;;;;10815027;33;20059;-69
2023/10/02 11:26:40;;;;;;;8.57;6.03;;;25.50;67.50;;;;;;10828099;33;20046;-69
2023/10/02 11:32:53;;;;;;;6.78;5.20;;;25.70;67.10;;;;;;10829163;33;20024;-69
2023/10/02 11:38:56;;;;;;;9.65;7.82;;;25.80;66.60;;;;;;10822319;33;20036;-71
2023/10/02 11:44:58;;;;;;;11.90;6.75;;;25.90;66.10;;;;;;10828223;33;20027;-68
2023/10/02 11:51:00;;;;;;;7.97;5.68;;;25.80;66.00;;;;;;10827364;33;20024;-68
2023/10/02 11:57:12;;;;;;;9.43;6.50;;;25.90;65.70;;;;;;10827055;33;20020;-75
2023/10/02 12:03:18;;;;;;;9.77;7.35;;;25.90;65.20;;;;;;10823814;33;20413;-74
2023/10/02 12:09:23;;;;;;;10.07;7.00;;;25.80;65.30;;;;;;10826906;33;20032;-73
2023/10/02 12:15:26;;;;;;;8.65;5.60;;;25.80;64.90;;;;;;10826891;33;20039;-73
2023/10/02 12:21:28;;;;;;;15.15;6.78;;;25.80;64.70;;;;;;10826716;33;20027;-72
2023/10/02 12:27:32;;;;;;;8.55;5.43;;;25.80;64.00;;;;;;10826970;33;20322;-73
2023/10/02 12:33:35;;;;;;;12.93;8.63;;;25.80;63.90;;;;;;10826346;33;20024;-73
2023/10/02 12:39:37;;;;;;;8.38;5.93;;;25.90;63.20;;;;;;10826031;33;20047;-73
2023/10/02 12:45:40;;;;;;;7.62;5.37;;;25.80;63.00;;;;;;10826496;32;20023;-74
2023/10/02 12:51:43;;;;;;;13.35;8.60;;;25.80;62.80;;;;;;10825899;33;20051;-72
2023/10/02 12:57:46;;;;;;;8.93;5.47;;;25.80;62.10;;;;;;10826766;33;20024;-73
2023/10/02 13:03:48;;;;;;;7.95;5.53;;;25.80;61.60;;;;;;10825200;33;20070;-69
2023/10/02 13:09:51;;;;;;;7.12;6.05;;;25.90;61.50;;;;;;10825935;33;20027;-69
2023/10/02 13:15:53;;;;;;;6.60;4.62;;;25.90;61.70;;;;;;10825856;33;20020;-70
2023/10/02 13:21:55;;;;;;;10.10;5.93;;;26.00;61.80;;;;;;10823000;33;20024;-69
2023/10/02 13:27:59;;;;;;;8.98;6.20;;;26.10;61.60;;;;;;10825491;33;20051;-70
2023/10/02 13:34:05;;;;;;;9.52;5.90;;;26.20;61.30;;;;;;10824658;33;20036;-70
2023/10/02 13:40:18;;;;;;;10.15;8.43;;;26.10;61.30;;;;;;10824781;33;20016;-69
2023/10/02 13:46:22;;;;;;;12.82;11.43;;;26.20;61.40;;;;;;10824933;33;20028;-71
2023/10/02 13:52:24;;;;;;;12.52;8.27;;;26.30;62.10;;;;;;10823259;33;20043;-69
2023/10/02 13:58:27;;;;;;;8.80;6.70;;;26.30;62.40;;;;;;10827127;32;20437;-69
2023/10/02 14:04:29;;;;;;;8.55;6.22;;;26.30;62.40;;;;;;10831765;33;20044;-69
2023/10/02 14:10:32;;;;;;;19.92;13.50;;;26.30;62.50;;;;;;10831562;33;20051;-69
2023/10/02 14:16:34;;;;;;;12.32;11.10;;;26.30;62.70;;;;;;10829122;33;20051;-69
2023/10/02 14:22:37;;;;;;;14.65;10.13;;;26.30;62.80;;;;;;10831267;33;20028;-69
2023/10/02 14:28:41;;;;;;;17.83;12.20;;;26.30;62.90;;;;;;10817790;32;20031;-69
2023/10/02 14:34:43;;;;;;;11.12;9.50;;;26.40;62.90;;;;;;10831105;33;20024;-70
2023/10/02 14:40:45;;;;;;;13.27;8.82;;;26.40;62.80;;;;;;10830196;33;20043;-69
2023/10/02 14:46:47;;;;;;;10.35;8.68;;;26.50;62.80;;;;;;10833100;27;20050;-69
2023/10/02 14:53:11;;;;;;;11.00;7.93;;;26.60;62.40;;;;;;10829702;33;20055;-69
2023/10/02 14:59:14;;;;;;;10.40;7.72;;;26.70;62.30;;;;;;10830015;33;20021;-71
2023/10/02 15:05:17;;;;;;;9.25;7.32;;;26.70;62.30;;;;;;10828945;33;20020;-69
2023/10/02 15:11:19;;;;;;;11.32;8.45;;;26.60;62.70;;;;;;10828584;32;20467;-70
2023/10/02 15:17:22;;;;;;;15.75;11.85;;;26.60;62.80;;;;;;10823469;33;20035;-71
2023/10/02 15:23:24;;;;;;;13.62;8.88;;;26.80;62.60;;;;;;10829341;33;20028;-70
2023/10/02 15:29:27;;;;;;;12.77;7.50;;;27.30;61.60;;;;;;10824078;33;20024;-70
2023/10/02 15:35:30;;;;;;;11.43;7.75;;;27.60;61.10;;;;;;10828568;33;20031;-71
2023/10/02 15:41:32;;;;;;;9.07;5.93;;;28.00;60.20;;;;;;10828850;33;20046;-70
2023/10/02 15:47:35;;;;;;;9.52;5.53;;;28.00;60.20;;;;;;10826271;33;20070;-70
2023/10/02 15:53:37;;;;;;;8.30;5.93;;;27.50;61.20;;;;;;10827222;33;20020;-69
2023/10/02 15:59:41;;;;;;;8.65;5.30;;;27.40;61.60;;;;;;10827635;33;20393;-71
2023/10/02 16:05:46;;;;;;;9.45;5.87;;;27.40;61.60;;;;;;10828009;33;20024;-70
2023/10/02 16:11:49;;;;;;;8.35;5.20;;;27.20;61.90;;;;;;10824038;33;20042;-72
2023/10/02 16:17:54;;;;;;;8.73;6.55;;;26.80;62.00;;;;;;10827837;33;20024;-72
2023/10/02 16:23:57;;;;;;;8.52;6.72;;;26.30;62.90;;;;;;10826683;32;20353;-70
2023/10/02 16:30:01;;;;;;;10.70;8.50;;;26.00;63.50;;;;;;10826602;33;20082;-70
2023/10/02 16:36:03;;;;;;;8.13;6.10;;;25.70;64.00;;;;;;10825944;33;20024;-70
2023/10/02 16:42:05;;;;;;;8.48;5.97;;;25.50;64.30;;;;;;10826207;33;20413;-70
2023/10/02 16:48:08;;;;;;;6.62;5.00;;;25.30;64.60;;;;;;10825959;33;20054;-70
2023/10/02 16:54:11;;;;;;;7.68;5.12;;;25.20;64.80;;;;;;10824545;33;20389;-69
2023/10/02 17:00:14;;;;;;;7.45;4.43;;;25.00;65.00;;;;;;10826605;33;20025;-70
2023/10/02 17:06:17;;;;;;;7.40;4.80;;;24.90;65.30;;;;;;10824230;33;20040;-69
2023/10/02 17:12:19;;;;;;;6.32;4.93;;;24.80;65.50;;;;;;10824069;33;20526;-69
2023/10/02 17:18:22;;;;;;;5.80;3.60;;;24.60;65.70;;;;;;10823901;33;20353;-69
2023/10/02 17:24:25;;;;;;;6.45;3.72;;;24.50;65.90;;;;;;10825883;33;20024;-69
2023/10/02 17:30:28;;;;;;;7.20;3.83;;;24.50;66.00;;;;;;10825196;33;20510;-70
2023/10/02 17:36:30;;;;;;;6.85;3.62;;;24.30;66.20;;;;;;10804765;32;20370;-69
2023/10/02 17:42:33;;;;;;;5.28;3.85;;;24.30;66.30;;;;;;10787493;33;20024;-69
2023/10/02 17:48:35;;;;;;;6.40;3.83;;;24.20;66.50;;;;;;10787207;33;20028;-70
2023/10/02 17:54:41;;;;;;;7.90;4.57;;;24.00;66.70;;;;;;10786418;33;20029;-69
2023/10/02 18:00:45;;;;;;;6.70;4.50;;;23.90;67.00;;;;;;10788115;33;20424;-69
2023/10/02 18:06:48;;;;;;;5.75;4.03;;;23.90;67.20;;;;;;10782938;32;20308;-69
2023/10/02 18:12:51;;;;;;;5.93;4.12;;;23.80;67.30;;;;;;10793861;33;20029;-70
2023/10/02 18:18:53;;;;;;;6.78;4.18;;;23.80;67.50;;;;;;10823473;33;20024;-69
2023/10/02 18:24:55;;;;;;;9.15;5.03;;;23.70;67.60;;;;;;10823864;33;20050;-70
2023/10/02 18:30:58;;;;;;;6.22;4.50;;;23.70;67.70;;;;;;10781226;33;20437;-70
2023/10/02 18:37:00;;;;;;;7.07;3.47;;;23.60;67.90;;;;;;10795719;33;20064;-70
2023/10/02 18:43:03;;;;;;;8.57;4.18;;;23.50;68.30;;;;;;10782207;33;20039;-70
2023/10/02 18:49:08;;;;;;;7.05;5.07;;;23.30;69.40;;;;;;10799647;33;20028;-70
2023/10/02 18:55:11;;;;;;;8.38;4.55;;;23.20;70.10;;;;;;10790433;33;20039;-70
2023/10/02 19:01:14;;;;;;;6.10;4.90;;;23.20;70.20;;;;;;10817627;33;20047;-70
2023/10/02 19:07:16;;;;;;;7.82;5.78;;;23.10;70.40;;;;;;10811367;33;20029;-69
2023/10/02 19:13:18;;;;;;;5.87;4.95;;;23.10;70.40;;;;;;10814314;33;20075;-69
2023/10/02 19:19:20;;;;;;;12.90;5.53;;;23.00;70.60;;;;;;10828183;33;20012;-70
2023/10/02 19:25:22;;;;;;;5.47;3.87;;;23.00;70.70;;;;;;10828455;33;20338;-69
2023/10/02 19:31:25;;;;;;;6.00;5.03;;;22.90;70.80;;;;;;10829006;33;20441;-70
2023/10/02 19:37:28;;;;;;;8.70;6.30;;;22.90;71.00;;;;;;10827750;33;20028;-70
2023/10/02 19:43:30;;;;;;;8.90;6.05;;;22.80;71.10;;;;;;10825214;33;20043;-70
2023/10/02 19:49:33;;;;;;;6.50;4.43;;;22.80;71.30;;;;;;10818849;33;20040;-70
2023/10/02 19:55:35;;;;;;;6.65;4.90;;;22.70;71.40;;;;;;10824125;32;20063;-70
2023/10/02 20:01:38;;;;;;;7.18;4.80;;;22.70;71.70;;;;;;10821995;33;20028;-70
2023/10/02 20:07:41;;;;;;;10.77;6.97;;;22.60;72.30;;;;;;10823953;33;20437;-69
2023/10/02 20:13:45;;;;;;;9.43;6.72;;;22.50;72.90;;;;;;10785577;33;20029;-70
2023/10/02 20:19:47;;;;;;;8.23;6.25;;;22.50;72.80;;;;;;10797378;32;20055;-74
2023/10/02 20:25:49;;;;;;;9.30;6.68;;;22.40;73.10;;;;;;10785321;33;20108;-74
2023/10/02 20:31:51;;;;;;;11.15;6.30;;;22.40;73.90;;;;;;10785239;33;20020;-74
2023/10/02 20:38:17;;;;;;;10.32;5.60;;;22.30;73.90;;;;;;10781197;33;20025;-74
2023/10/02 20:44:19;;;;;;;8.15;6.22;;;22.30;74.10;;;;;;10796693;33;20047;-74
2023/10/02 20:50:22;;;;;;;7.87;6.03;;;22.20;74.20;;;;;;10784720;33;20031;-74
2023/10/02 20:56:24;;;;;;;9.60;6.32;;;22.20;74.10;;;;;;10784650;33;20024;-74
2023/10/02 21:02:27;;;;;;;7.32;6.15;;;22.10;74.30;;;;;;10784500;33;20035;-74
2023/10/02 21:08:29;;;;;;;9.10;7.03;;;22.00;74.90;;;;;;10784160;33;20070;-74
2023/10/02 21:14:32;;;;;;;9.45;7.40;;;22.00;75.40;;;;;;10783936;33;20028;-74
2023/10/02 21:20:34;;;;;;;13.00;7.07;;;22.00;75.70;;;;;;10784442;33;20024;-74
2023/10/02 21:26:38;;;;;;;11.75;8.45;;;22.00;75.80;;;;;;10782243;33;20418;-74
2023/10/02 21:32:41;;;;;;;10.18;7.87;;;21.90;75.60;;;;;;10784172;33;20044;-74
2023/10/02 21:38:44;;;;;;;19.23;9.65;;;21.90;75.90;;;;;;10824737;33;20020;-74
2023/10/02 21:44:46;;;;;;;12.02;8.98;;;21.90;75.90;;;;;;10825617;33;20024;-74
2023/10/02 21:51:07;;;;;;;15.45;8.43;;;21.90;75.90;;;;;;10824687;33;20055;-74
2023/10/02 21:57:10;;;;;;;10.02;8.63;;;21.90;76.10;;;;;;10825772;33;20051;-74
2023/10/02 22:03:15;;;;;;;11.52;9.95;;;21.80;76.20;;;;;;10820633;33;20055;-74
2023/10/02 22:09:40;;;;;;;12.75;9.15;;;21.80;76.50;;;;;;10824352;33;20028;-74
2023/10/02 22:15:42;;;;;;;14.05;10.00;;;21.80;76.40;;;;;;10824876;33;20390;-74
2023/10/02 22:21:44;;;;;;;9.55;7.95;;;21.80;76.50;;;;;;10829114;32;20047;-74
2023/10/02 22:27:48;;;;;;;13.50;9.48;;;21.70;76.50;;;;;;10831115;33;20023;-74
2023/10/02 22:33:50;;;;;;;10.57;9.50;;;21.70;76.70;;;;;;10830477;33;20051;-74
2023/10/02 22:39:52;;;;;;;10.85;9.43;;;21.60;76.60;;;;;;10829566;33;20025;-74
2023/10/02 22:45:55;;;;;;;9.60;8.10;;;21.60;76.60;;;;;;10829989;33;20051;-74
2023/10/02 22:51:57;;;;;;;17.12;10.35;;;21.40;76.70;;;;;;10748286;27;7440251;-69
2023/10/02 22:57:59;;;;;;;11.30;9.60;;;21.40;76.80;;;;;;10986003;32;20068;-69
2023/10/02 23:04:06;;;;;;;9.80;8.75;;;21.30;76.80;;;;;;10981674;32;20050;-70
2023/10/02 23:10:10;;;;;;;8.98;8.10;;;21.30;76.90;;;;;;10984193;32;20049;-70
2023/10/02 23:16:12;;;;;;;12.90;10.38;;;21.30;76.90;;;;;;10983871;32;20018;-70
2023/10/02 23:22:15;;;;;;;13.93;11.60;;;21.30;76.90;;;;;;10985367;32;20396;-70
2023/10/02 23:28:18;;;;;;;15.98;10.20;;;21.20;77.00;;;;;;10970202;32;20022;-70
2023/10/02 23:34:21;;;;;;;11.90;9.20;;;21.10;77.10;;;;;;10983792;32;20050;-70
2023/10/02 23:40:24;;;;;;;11.55;9.73;;;21.10;77.10;;;;;;10983531;32;20014;-70
2023/10/02 23:46:26;;;;;;;14.93;11.23;;;21.00;77.30;;;;;;10983206;32;20045;-70
2023/10/02 23:52:30;;;;;;;10.18;8.63;;;21.00;77.30;;;;;;10828476;32;20027;-70
2023/10/02 23:58:33;;;;;;;12.37;9.98;;;21.00;77.30;;;;;;10827928;33;20025;-70
